sensor_id;sensor_type;location;lat;lon;timestamp;pressure;altitude;pressure_sealevel;temperature;humidity
79589;BME280;69067;51.930;4.492;2023-10-13T00:01:56;101063.22;;;26.33;47.90
79589;BME280;69067;51.930;4.492;2023-10-13T00:04:25;101057.16;;;26.24;48.81
79589;BME280;69067;51.930;4.492;2023-10-13T00:06:55;101066.16;;;26.32;48.64
79589;BME280;69067;51.930;4.492;2023-10-13T00:09:26;101070.56;;;26.33;48.24
79589;BME280;69067;51.930;4.492;2023-10-13T00:11:59;101060.91;;;26.30;48.77
79589;BME280;69067;51.930;4.492;2023-10-13T00:14:26;101061.31;;;26.34;48.66
79589;BME280;69067;51.930;4.492;2023-10-13T00:17:04;101056.91;;;26.33;49.11
79589;BME280;69067;51.930;4.492;2023-10-13T00:19:35;101052.28;;;26.33;49.26
79589;BME280;69067;51.930;4.492;2023-10-13T00:22:14;101040.97;;;26.30;49.21
79589;BME280;69067;51.930;4.492;2023-10-13T00:24:45;101048.72;;;26.33;48.36
79589;BME280;69067;51.930;4.492;2023-10-13T00:27:16;101043.25;;;26.33;48.67
79589;BME280;69067;51.930;4.492;2023-10-13T00:30:04;101028.78;;;26.32;48.34
79589;BME280;69067;51.930;4.492;2023-10-13T00:32:44;101039.69;;;26.32;49.14
79589;BME280;69067;51.930;4.492;2023-10-13T00:35:16;101040.13;;;26.29;48.62
79589;BME280;69067;51.930;4.492;2023-10-13T00:37:54;101026.72;;;26.27;48.64
79589;BME280;69067;51.930;4.492;2023-10-13T00:40:21;101031.56;;;26.25;48.74
79589;BME280;69067;51.930;4.492;2023-10-13T00:42:58;101028.16;;;26.30;48.52
79589;BME280;69067;51.930;4.492;2023-10-13T00:45:44;101024.56;;;26.30;48.98
79589;BME280;69067;51.930;4.492;2023-10-13T00:48:11;101023.53;;;26.31;48.74
79589;BME280;69067;51.930;4.492;2023-10-13T00:50:38;101020.16;;;26.28;48.52
79589;BME280;69067;51.930;4.492;2023-10-13T00:53:04;101015.13;;;26.32;48.15
79589;BME280;69067;51.930;4.492;2023-10-13T00:55:30;101014.72;;;26.28;48.89
79589;BME280;69067;51.930;4.492;2023-10-13T00:58:00;101007.34;;;26.29;49.24
79589;BME280;69067;51.930;4.492;2023-10-13T01:00:32;101004.41;;;26.31;48.92
79589;BME280;69067;51.930;4.492;2023-10-13T01:02:58;101002.31;;;26.33;48.41
79589;BME280;69067;51.930;4.492;2023-10-13T01:05:33;100989.72;;;26.32;48.41
79589;BME280;69067;51.930;4.492;2023-10-13T01:08:02;100982.56;;;26.31;48.79
79589;BME280;69067;51.930;4.492;2023-10-13T01:10:28;100980.06;;;26.29;48.26
79589;BME280;69067;51.930;4.492;2023-10-13T01:12:58;100980.91;;;26.30;48.53
79589;BME280;69067;51.930;4.492;2023-10-13T01:15:27;100976.06;;;26.32;48.29
79589;BME280;69067;51.930;4.492;2023-10-13T01:18:09;100971.66;;;26.31;49.17
79589;BME280;69067;51.930;4.492;2023-10-13T01:20:38;100974.38;;;26.31;48.90
79589;BME280;69067;51.930;4.492;2023-10-13T01:23:17;100968.72;;;26.32;49.14
79589;BME280;69067;51.930;4.492;2023-10-13T01:25:44;100972.06;;;26.34;48.40
79589;BME280;69067;51.930;4.492;2023-10-13T01:28:11;100961.94;;;26.35;48.59
79589;BME280;69067;51.930;4.492;2023-10-13T01:30:45;100963.03;;;26.34;49.02
79589;BME280;69067;51.930;4.492;2023-10-13T01:33:18;100965.97;;;26.32;49.14
79589;BME280;69067;51.930;4.492;2023-10-13T01:35:53;100950.44;;;26.33;49.50
79589;BME280;69067;51.930;4.492;2023-10-13T01:38:20;100955.44;;;26.36;48.51
79589;BME280;69067;51.930;4.492;2023-10-13T01:40:46;100951.28;;;26.33;49.72
79589;BME280;69067;51.930;4.492;2023-10-13T01:43:17;100953.75;;;26.35;48.63
79589;BME280;69067;51.930;4.492;2023-10-13T01:45:43;100955.44;;;26.36;49.50
79589;BME280;69067;51.930;4.492;2023-10-13T01:48:15;100944.75;;;26.34;49.18
79589;BME280;69067;51.930;4.492;2023-10-13T01:50:47;100945.56;;;26.35;49.27
79589;BME280;69067;51.930;4.492;2023-10-13T01:53:40;100934.63;;;26.35;49.21
79589;BME280;69067;51.930;4.492;2023-10-13T01:56:09;100929.19;;;26.35;49.11
79589;BME280;69067;51.930;4.492;2023-10-13T01:58:38;100910.75;;;26.30;49.01
79589;BME280;69067;51.930;4.492;2023-10-13T02:01:10;100912.78;;;26.35;48.53
79589;BME280;69067;51.930;4.492;2023-10-13T02:03:37;100906.53;;;26.34;49.57
79589;BME280;69067;51.930;4.492;2023-10-13T02:06:12;100892.69;;;26.29;49.34
79589;BME280;69067;51.930;4.492;2023-10-13T02:08:43;100884.91;;;26.33;49.23
79589;BME280;69067;51.930;4.492;2023-10-13T02:11:09;100888.22;;;26.35;48.45
79589;BME280;69067;51.930;4.492;2023-10-13T02:13:35;100881.56;;;26.31;49.02
79589;BME280;69067;51.930;4.492;2023-10-13T02:16:14;100883.00;;;26.33;49.55
79589;BME280;69067;51.930;4.492;2023-10-13T02:18:44;100880.03;;;26.35;49.32
79589;BME280;69067;51.930;4.492;2023-10-13T02:21:10;100872.69;;;26.35;48.75
79589;BME280;69067;51.930;4.492;2023-10-13T02:23:39;100877.31;;;26.35;48.46
79589;BME280;69067;51.930;4.492;2023-10-13T02:26:14;100861.38;;;26.32;49.21
79589;BME280;69067;51.930;4.492;2023-10-13T02:28:59;100863.66;;;26.35;49.11
79589;BME280;69067;51.930;4.492;2023-10-13T02:31:35;100858.19;;;26.35;48.57
79589;BME280;69067;51.930;4.492;2023-10-13T02:34:01;100842.66;;;26.35;48.80
79589;BME280;69067;51.930;4.492;2023-10-13T02:36:32;100829.25;;;26.34;49.10
79589;BME280;69067;51.930;4.492;2023-10-13T02:39:12;100821.28;;;26.32;48.94
79589;BME280;69067;51.930;4.492;2023-10-13T02:41:39;100823.78;;;26.34;49.13
79589;BME280;69067;51.930;4.492;2023-10-13T02:44:07;100814.75;;;26.33;48.53
79589;BME280;69067;51.930;4.492;2023-10-13T02:46:35;100823.78;;;26.34;49.35
79589;BME280;69067;51.930;4.492;2023-10-13T02:49:06;100818.31;;;26.34;48.89
79589;BME280;69067;51.930;4.492;2023-10-13T02:51:39;100815.34;;;26.35;48.24
79589;BME280;69067;51.930;4.492;2023-10-13T02:54:09;100826.50;;;26.34;48.32
79589;BME280;69067;51.930;4.492;2023-10-13T02:56:44;100821.91;;;26.34;48.19
79589;BME280;69067;51.930;4.492;2023-10-13T02:59:33;100809.53;;;26.32;48.70
79589;BME280;69067;51.930;4.492;2023-10-13T03:02:08;100805.13;;;26.31;49.12
79589;BME280;69067;51.930;4.492;2023-10-13T03:04:47;100799.22;;;26.34;48.32
79589;BME280;69067;51.930;4.492;2023-10-13T03:07:13;100782.00;;;26.33;49.31
79589;BME280;69067;51.930;4.492;2023-10-13T03:09:48;100775.47;;;26.34;48.63
79589;BME280;69067;51.930;4.492;2023-10-13T03:12:20;100765.38;;;26.35;48.89
79589;BME280;69067;51.930;4.492;2023-10-13T03:14:47;100745.44;;;26.34;48.49
79589;BME280;69067;51.930;4.492;2023-10-13T03:17:13;100733.91;;;26.32;49.23
79589;BME280;69067;51.930;4.492;2023-10-13T03:19:45;100745.19;;;26.36;49.07
79589;BME280;69067;51.930;4.492;2023-10-13T03:22:15;100740.34;;;26.38;48.62
79589;BME280;69067;51.930;4.492;2023-10-13T03:24:43;100743.06;;;26.38;48.73
79589;BME280;69067;51.930;4.492;2023-10-13T03:27:17;100733.22;;;26.37;48.50
79589;BME280;69067;51.930;4.492;2023-10-13T03:29:45;100704.31;;;26.29;48.49
79589;BME280;69067;51.930;4.492;2023-10-13T03:32:20;100711.59;;;26.35;49.04
79589;BME280;69067;51.930;4.492;2023-10-13T03:34:47;100699.38;;;26.38;48.50
79589;BME280;69067;51.930;4.492;2023-10-13T03:37:20;100695.00;;;26.37;48.25
79589;BME280;69067;51.930;4.492;2023-10-13T03:40:05;100695.00;;;26.37;49.43
79589;BME280;69067;51.930;4.492;2023-10-13T03:42:55;100689.31;;;26.38;48.25
79589;BME280;69067;51.930;4.492;2023-10-13T03:45:42;100677.56;;;26.38;48.26
79589;BME280;69067;51.930;4.492;2023-10-13T03:48:19;100664.59;;;26.33;48.74
79589;BME280;69067;51.930;4.492;2023-10-13T03:53:38;100661.63;;;26.35;48.79
79589;BME280;69067;51.930;4.492;2023-10-13T03:56:28;100645.84;;;26.37;48.34
79589;BME280;69067;51.930;4.492;2023-10-13T03:59:05;100649.63;;;26.36;49.10
79589;BME280;69067;51.930;4.492;2023-10-13T04:01:34;100638.97;;;26.34;48.88
79589;BME280;69067;51.930;4.492;2023-10-13T04:04:15;100644.44;;;26.34;48.31
79589;BME280;69067;51.930;4.492;2023-10-13T04:06:55;100642.75;;;26.33;48.99
79589;BME280;69067;51.930;4.492;2023-10-13T04:09:39;100646.41;;;26.27;49.07
79589;BME280;69067;51.930;4.492;2023-10-13T04:12:07;100654.53;;;26.34;49.23
79589;BME280;69067;51.930;4.492;2023-10-13T04:15:11;100653.69;;;26.33;48.30
79589;BME280;69067;51.930;4.492;2023-10-13T04:17:45;100661.03;;;26.33;48.99
79589;BME280;69067;51.930;4.492;2023-10-13T04:20:11;100636.47;;;26.33;48.15
79589;BME280;69067;51.930;4.492;2023-10-13T04:22:39;100636.47;;;26.33;48.41
79589;BME280;69067;51.930;4.492;2023-10-13T04:25:16;100632.91;;;26.32;48.39
79589;BME280;69067;51.930;4.492;2023-10-13T04:28:03;100625.16;;;26.29;48.53
79589;BME280;69067;51.930;4.492;2023-10-13T04:33:33;100610.00;;;26.33;48.38
79589;BME280;69067;51.930;4.492;2023-10-13T04:36:18;100623.88;;;26.32;49.05
79589;BME280;69067;51.930;4.492;2023-10-13T04:38:56;100615.91;;;26.30;48.89
79589;BME280;69067;51.930;4.492;2023-10-13T04:41:27;100618.41;;;26.32;48.78
79589;BME280;69067;51.930;4.492;2023-10-13T04:44:22;100605.81;;;26.31;48.32
79589;BME280;69067;51.930;4.492;2023-10-13T04:46:57;100605.81;;;26.31;48.77
79589;BME280;69067;51.930;4.492;2023-10-13T04:49:28;100602.66;;;26.34;48.54
79589;BME280;69067;51.930;4.492;2023-10-13T04:52:15;100606.22;;;26.34;48.09
79589;BME280;69067;51.930;4.492;2023-10-13T04:55:14;100607.50;;;26.32;48.57
79589;BME280;69067;51.930;4.492;2023-10-13T04:57:58;100587.44;;;26.26;48.21
79589;BME280;69067;51.930;4.492;2023-10-13T05:00:36;100589.44;;;26.31;49.07
79589;BME280;69067;51.930;4.492;2023-10-13T05:03:08;100593.84;;;26.32;48.68
79589;BME280;69067;51.930;4.492;2023-10-13T05:06:02;100583.53;;;26.34;48.94
79589;BME280;69067;51.930;4.492;2023-10-13T05:08:57;100560.25;;;26.31;48.89
79589;BME280;69067;51.930;4.492;2023-10-13T05:11:41;100555.63;;;26.32;48.31
79589;BME280;69067;51.930;4.492;2023-10-13T05:14:25;100556.91;;;26.29;48.98
79589;BME280;69067;51.930;4.492;2023-10-13T05:17:09;100554.56;;;26.33;48.31
79589;BME280;69067;51.930;4.492;2023-10-13T05:19:56;100548.28;;;26.32;48.74
79589;BME280;69067;51.930;4.492;2023-10-13T05:22:42;100542.22;;;26.30;48.17
79589;BME280;69067;51.930;4.492;2023-10-13T05:25:26;100541.16;;;26.31;48.63
79589;BME280;69067;51.930;4.492;2023-10-13T05:28:10;100535.69;;;26.31;48.15
79589;BME280;69067;51.930;4.492;2023-10-13T05:30:54;100539.03;;;26.33;48.92
79589;BME280;69067;51.930;4.492;2023-10-13T05:33:38;100521.59;;;26.34;48.40
79589;BME280;69067;51.930;4.492;2023-10-13T05:36:22;100521.31;;;26.36;48.18
79589;BME280;69067;51.930;4.492;2023-10-13T05:39:06;100505.06;;;26.29;48.92
79589;BME280;69067;51.930;4.492;2023-10-13T05:41:50;100502.09;;;26.31;48.83
79589;BME280;69067;51.930;4.492;2023-10-13T05:44:35;100510.06;;;26.32;48.36
79589;BME280;69067;51.930;4.492;2023-10-13T05:47:12;100515.50;;;26.32;48.83
79589;BME280;69067;51.930;4.492;2023-10-13T05:49:58;100519.09;;;26.33;48.96
79589;BME280;69067;51.930;4.492;2023-10-13T05:52:52;100512.56;;;26.34;48.25
79589;BME280;69067;51.930;4.492;2023-10-13T05:55:25;100513.38;;;26.34;48.74
79589;BME280;69067;51.930;4.492;2023-10-13T05:58:13;100498.31;;;26.32;48.73
79589;BME280;69067;51.930;4.492;2023-10-13T06:00:58;100496.84;;;26.29;47.99
79589;BME280;69067;51.930;4.492;2023-10-13T06:03:42;100495.81;;;26.30;48.29
79589;BME280;69067;51.930;4.492;2023-10-13T06:06:27;100482.38;;;26.28;47.92
79589;BME280;69067;51.930;4.492;2023-10-13T06:09:11;100490.34;;;26.30;48.56
79589;BME280;69067;51.930;4.492;2023-10-13T06:11:55;100472.78;;;26.26;48.74
79589;BME280;69067;51.930;4.492;2023-10-13T06:14:39;100469.00;;;26.27;48.26
79589;BME280;69067;51.930;4.492;2023-10-13T06:17:24;100473.13;;;26.30;48.66
79589;BME280;69067;51.930;4.492;2023-10-13T06:20:08;100474.78;;;26.31;48.71
79589;BME280;69067;51.930;4.492;2023-10-13T06:22:53;100463.03;;;26.30;48.49
79589;BME280;69067;51.930;4.492;2023-10-13T06:25:38;100459.25;;;26.31;48.52
79589;BME280;69067;51.930;4.492;2023-10-13T06:28:22;100450.84;;;26.33;48.42
79589;BME280;69067;51.930;4.492;2023-10-13T06:31:08;100439.53;;;26.29;48.45
79589;BME280;69067;51.930;4.492;2023-10-13T06:33:37;100434.91;;;26.30;48.12
79589;BME280;69067;51.930;4.492;2023-10-13T06:36:10;100433.00;;;26.30;48.34
79589;BME280;69067;51.930;4.492;2023-10-13T06:38:37;100422.59;;;26.27;48.71
79589;BME280;69067;51.930;4.492;2023-10-13T06:41:06;100424.00;;;26.30;48.26
79589;BME280;69067;51.930;4.492;2023-10-13T06:43:37;100420.19;;;26.31;48.57
79589;BME280;69067;51.930;4.492;2023-10-13T06:46:09;100413.06;;;26.30;49.00
79589;BME280;69067;51.930;4.492;2023-10-13T06:48:41;100425.66;;;26.31;48.65
79589;BME280;69067;51.930;4.492;2023-10-13T06:51:09;100395.63;;;26.31;48.63
79589;BME280;69067;51.930;4.492;2023-10-13T06:53:45;100388.03;;;26.33;48.82
79589;BME280;69067;51.930;4.492;2023-10-13T06:56:14;100383.88;;;26.30;49.03
79589;BME280;69067;51.930;4.492;2023-10-13T06:58:54;100382.81;;;26.31;49.25
79589;BME280;69067;51.930;4.492;2023-10-13T07:01:29;100372.13;;;26.30;49.08
79589;BME280;69067;51.930;4.492;2023-10-13T07:03:57;100377.59;;;26.30;48.54
79589;BME280;69067;51.930;4.492;2023-10-13T07:06:27;100381.97;;;26.31;48.42
79589;BME280;69067;51.930;4.492;2023-10-13T07:08:53;100403.81;;;26.31;48.78
79589;BME280;69067;51.930;4.492;2023-10-13T07:11:24;100402.16;;;26.30;48.65
79589;BME280;69067;51.930;4.492;2023-10-13T07:14:03;100396.69;;;26.30;49.23
79589;BME280;69067;51.930;4.492;2023-10-13T07:16:55;100391.00;;;26.31;48.69
79589;BME280;69067;51.930;4.492;2023-10-13T07:19:26;100405.50;;;26.32;48.70
79589;BME280;69067;51.930;4.492;2023-10-13T07:21:56;100410.13;;;26.31;49.05
79589;BME280;69067;51.930;4.492;2023-10-13T07:24:48;100393.13;;;26.29;48.76
79589;BME280;69067;51.930;4.492;2023-10-13T07:27:19;100394.56;;;26.32;48.14
79589;BME280;69067;51.930;4.492;2023-10-13T07:29:54;100369.72;;;26.21;49.09
79589;BME280;69067;51.930;4.492;2023-10-13T07:32:43;100369.63;;;26.28;48.70
79589;BME280;69067;51.930;4.492;2023-10-13T07:35:15;100375.78;;;26.23;49.17
79589;BME280;69067;51.930;4.492;2023-10-13T07:37:46;100364.25;;;26.21;48.71
79589;BME280;69067;51.930;4.492;2023-10-13T07:40:14;100361.28;;;26.23;49.04
79589;BME280;69067;51.930;4.492;2023-10-13T07:42:52;100387.75;;;26.22;48.30
79589;BME280;69067;51.930;4.492;2023-10-13T07:45:30;100398.69;;;26.22;49.02
79589;BME280;69067;51.930;4.492;2023-10-13T07:48:06;100398.34;;;26.19;48.79
79589;BME280;69067;51.930;4.492;2023-10-13T07:50:59;100381.13;;;26.18;49.25
79589;BME280;69067;51.930;4.492;2023-10-13T07:53:31;100374.53;;;26.26;48.56
79589;BME280;69067;51.930;4.492;2023-10-13T07:56:01;100361.53;;;26.21;48.90
79589;BME280;69067;51.930;4.492;2023-10-13T07:58:43;100364.25;;;26.21;48.77
79589;BME280;69067;51.930;4.492;2023-10-13T08:01:26;100369.72;;;26.21;48.53
79589;BME280;69067;51.930;4.492;2023-10-13T08:03:53;100351.94;;;26.19;49.34
79589;BME280;69067;51.930;4.492;2023-10-13T08:06:41;100364.16;;;26.16;49.39
79589;BME280;69067;51.930;4.492;2023-10-13T08:09:09;100351.78;;;26.14;49.04
79589;BME280;69067;51.930;4.492;2023-10-13T08:11:38;100363.09;;;26.17;48.60
79589;BME280;69067;51.930;4.492;2023-10-13T08:14:06;100345.03;;;26.16;49.07
79589;BME280;69067;51.930;4.492;2023-10-13T08:16:48;100347.16;;;26.14;49.37
79589;BME280;69067;51.930;4.492;2023-10-13T08:19:22;100343.88;;;26.12;49.01
79589;BME280;69067;51.930;4.492;2023-10-13T08:22:06;100337.34;;;26.13;49.19
79589;BME280;69067;51.930;4.492;2023-10-13T08:24:50;100338.75;;;26.16;48.92
79589;BME280;69067;51.930;4.492;2023-10-13T08:27:20;100338.88;;;26.09;48.93
79589;BME280;69067;51.930;4.492;2023-10-13T08:30:01;100325.81;;;26.11;49.50
79589;BME280;69067;51.930;4.492;2023-10-13T08:32:28;100329.16;;;26.13;48.65
79589;BME280;69067;51.930;4.492;2023-10-13T08:34:59;100334.34;;;26.15;49.24
79589;BME280;69067;51.930;4.492;2023-10-13T08:37:31;100341.47;;;26.16;48.78
79589;BME280;69067;51.930;4.492;2023-10-13T08:40:24;100341.47;;;26.16;48.74
79589;BME280;69067;51.930;4.492;2023-10-13T08:43:12;100338.97;;;26.14;49.61
79589;BME280;69067;51.930;4.492;2023-10-13T08:45:40;100330.78;;;26.14;49.42
79589;BME280;69067;51.930;4.492;2023-10-13T08:48:11;100324.28;;;26.15;49.19
79589;BME280;69067;51.930;4.492;2023-10-13T08:50:48;100300.53;;;26.16;49.33
79589;BME280;69067;51.930;4.492;2023-10-13T08:56:17;100319.31;;;26.12;49.77
79589;BME280;69067;51.930;4.492;2023-10-13T08:58:48;100321.44;;;26.10;49.01
79589;BME280;69067;51.930;4.492;2023-10-13T09:01:35;100315.25;;;26.15;49.05
79589;BME280;69067;51.930;4.492;2023-10-13T09:04:19;100317.88;;;26.10;48.97
79589;BME280;69067;51.930;4.492;2023-10-13T09:12:29;100292.03;;;26.12;49.72
79589;BME280;69067;51.930;4.492;2023-10-13T09:15:00;100293.69;;;26.13;48.74
79589;BME280;69067;51.930;4.492;2023-10-13T09:17:43;100280.28;;;26.12;48.91
79589;BME280;69067;51.930;4.492;2023-10-13T09:20:27;100298.31;;;26.13;49.01
79589;BME280;69067;51.930;4.492;2023-10-13T09:23:10;100289.03;;;26.14;48.86
79589;BME280;69067;51.930;4.492;2023-10-13T09:25:51;100287.41;;;26.13;49.10
79589;BME280;69067;51.930;4.492;2023-10-13T09:28:27;100292.59;;;26.14;49.74
79589;BME280;69067;51.930;4.492;2023-10-13T09:30:55;100281.44;;;26.16;48.60
79589;BME280;69067;51.930;4.492;2023-10-13T09:33:28;100277.31;;;26.13;49.53
79589;BME280;69067;51.930;4.492;2023-10-13T09:36:16;100257.59;;;26.11;49.51
79589;BME280;69067;51.930;4.492;2023-10-13T09:38:43;100253.56;;;26.14;49.63
79589;BME280;69067;51.930;4.492;2023-10-13T09:41:37;100268.03;;;26.14;48.88
79589;BME280;69067;51.930;4.492;2023-10-13T09:44:03;100252.25;;;26.16;48.80
79589;BME280;69067;51.930;4.492;2023-10-13T09:46:30;100256.28;;;26.14;49.16
79589;BME280;69067;51.930;4.492;2023-10-13T09:48:58;100246.94;;;26.10;48.88
79589;BME280;69067;51.930;4.492;2023-10-13T09:51:34;100258.44;;;26.12;49.13
79589;BME280;69067;51.930;4.492;2023-10-13T09:54:03;100243.72;;;26.13;48.76
79589;BME280;69067;51.930;4.492;2023-10-13T09:56:47;100245.63;;;26.12;48.96
79589;BME280;69067;51.930;4.492;2023-10-13T09:59:24;100238.41;;;26.06;49.52
79589;BME280;69067;51.930;4.492;2023-10-13T10:02:00;100234.34;;;26.09;49.09
79589;BME280;69067;51.930;4.492;2023-10-13T10:04:35;100225.94;;;26.10;49.10
79589;BME280;69067;51.930;4.492;2023-10-13T10:07:24;100228.19;;;26.13;48.73
79589;BME280;69067;51.930;4.492;2023-10-13T10:10:01;100222.88;;;26.07;49.10
79589;BME280;69067;51.930;4.492;2023-10-13T10:12:44;100225.19;;;26.15;49.53
79589;BME280;69067;51.930;4.492;2023-10-13T10:15:29;100235.28;;;26.14;49.44
79589;BME280;69067;51.930;4.492;2023-10-13T10:18:00;100222.72;;;26.13;48.94
79589;BME280;69067;51.930;4.492;2023-10-13T10:20:31;100229.81;;;26.14;49.10
79589;BME280;69067;51.930;4.492;2023-10-13T10:23:07;100236.94;;;26.15;49.18
79589;BME280;69067;51.930;4.492;2023-10-13T10:25:48;100226.84;;;26.16;48.93
79589;BME280;69067;51.930;4.492;2023-10-13T10:28:17;100222.72;;;26.13;48.47
79589;BME280;69067;51.930;4.492;2023-10-13T10:30:45;100228.75;;;26.15;48.96
79589;BME280;69067;51.930;4.492;2023-10-13T10:33:12;100214.53;;;26.13;49.21
79589;BME280;69067;51.930;4.492;2023-10-13T10:35:42;100205.53;;;26.13;48.49
79589;BME280;69067;51.930;4.492;2023-10-13T10:40:55;100204.19;;;26.15;48.25
79589;BME280;69067;51.930;4.492;2023-10-13T10:43:36;100210.72;;;26.14;48.79
79589;BME280;69067;51.930;4.492;2023-10-13T10:46:10;100199.25;;;26.12;48.62
79589;BME280;69067;51.930;4.492;2023-10-13T10:48:38;100194.94;;;26.16;48.33
79589;BME280;69067;51.930;4.492;2023-10-13T10:51:09;100184.53;;;26.13;48.40
79589;BME280;69067;51.930;4.492;2023-10-13T10:53:49;100188.75;;;26.21;48.00
79589;BME280;69067;51.930;4.492;2023-10-13T10:56:25;100194.13;;;26.16;49.10
79589;BME280;69067;51.930;4.492;2023-10-13T10:59:03;100180.38;;;26.11;48.75
79589;BME280;69067;51.930;4.492;2023-10-13T11:01:32;100179.06;;;26.13;48.83
79589;BME280;69067;51.930;4.492;2023-10-13T11:04:07;100175.75;;;26.11;48.78
79589;BME280;69067;51.930;4.492;2023-10-13T11:06:37;100182.88;;;26.12;48.13
79589;BME280;69067;51.930;4.492;2023-10-13T11:09:12;100180.69;;;26.14;48.24
79589;BME280;69067;51.930;4.492;2023-10-13T11:11:47;100175.25;;;26.14;48.47
79589;BME280;69067;51.930;4.492;2023-10-13T11:14:27;100162.69;;;26.13;48.56
79589;BME280;69067;51.930;4.492;2023-10-13T11:16:55;100163.50;;;26.14;47.89
79589;BME280;69067;51.930;4.492;2023-10-13T11:19:38;100160.44;;;26.10;47.86
79589;BME280;69067;51.930;4.492;2023-10-13T11:22:14;100167.88;;;26.15;48.63
79589;BME280;69067;51.930;4.492;2023-10-13T11:25:00;100165.44;;;26.13;48.19
79589;BME280;69067;51.930;4.492;2023-10-13T11:27:41;100160.66;;;26.09;48.49
79589;BME280;69067;51.930;4.492;2023-10-13T11:30:13;100173.34;;;26.15;48.36
79589;BME280;69067;51.930;4.492;2023-10-13T11:32:56;100175.50;;;26.13;47.75
79589;BME280;69067;51.930;4.492;2023-10-13T11:35:23;100167.31;;;26.13;48.06
79589;BME280;69067;51.930;4.492;2023-10-13T11:37:50;100165.78;;;26.05;47.87
79589;BME280;69067;51.930;4.492;2023-10-13T11:40:23;100188.06;;;26.14;48.26
79589;BME280;69067;51.930;4.492;2023-10-13T11:43:07;100164.13;;;26.04;47.66
79589;BME280;69067;51.930;4.492;2023-10-13T11:45:40;100176.69;;;26.17;48.03
79589;BME280;69067;51.930;4.492;2023-10-13T11:48:21;100154.16;;;26.10;47.68
79589;BME280;69067;51.930;4.492;2023-10-13T11:51:08;100179.88;;;26.14;47.74
79589;BME280;69067;51.930;4.492;2023-10-13T11:53:50;100166.50;;;26.12;47.67
79589;BME280;69067;51.930;4.492;2023-10-13T11:56:19;100173.63;;;26.13;47.72
79589;BME280;69067;51.930;4.492;2023-10-13T11:58:49;100156.66;;;26.11;46.84
79589;BME280;69067;51.930;4.492;2023-10-13T12:01:16;100136.84;;;26.04;47.37
79589;BME280;69067;51.930;4.492;2023-10-13T12:03:47;100155.22;;;26.09;47.25
79589;BME280;69067;51.930;4.492;2023-10-13T12:06:34;100128.31;;;26.01;47.23
79589;BME280;69067;51.930;4.492;2023-10-13T12:09:01;100156.88;;;26.10;47.02
79589;BME280;69067;51.930;4.492;2023-10-13T12:11:43;100119.28;;;26.00;47.51
79589;BME280;69067;51.930;4.492;2023-10-13T12:14:16;100153.91;;;26.11;47.56
79589;BME280;69067;51.930;4.492;2023-10-13T12:16:47;100155.56;;;26.12;47.28
79589;BME280;69067;51.930;4.492;2023-10-13T12:19:21;100154.19;;;25.98;47.38
79589;BME280;69067;51.930;4.492;2023-10-13T12:21:50;100124.09;;;25.81;47.83
79589;BME280;69067;51.930;4.492;2023-10-13T12:24:21;100136.28;;;25.91;48.05
79589;BME280;69067;51.930;4.492;2023-10-13T12:27:01;100130.13;;;25.83;47.60
79589;BME280;69067;51.930;4.492;2023-10-13T12:29:28;100133.09;;;25.82;47.49
79589;BME280;69067;51.930;4.492;2023-10-13T12:31:58;100142.72;;;25.84;47.64
79589;BME280;69067;51.930;4.492;2023-10-13T12:34:46;100125.16;;;25.80;47.40
79589;BME280;69067;51.930;4.492;2023-10-13T12:37:27;100150.25;;;25.94;47.82
79589;BME280;69067;51.930;4.492;2023-10-13T12:40:13;100137.59;;;25.88;48.11
79589;BME280;69067;51.930;4.492;2023-10-13T12:42:59;100136.63;;;25.94;47.28
79589;BME280;69067;51.930;4.492;2023-10-13T12:45:46;100142.56;;;25.91;47.59
79589;BME280;69067;51.930;4.492;2023-10-13T12:48:32;100138.78;;;25.92;47.79
79589;BME280;69067;51.930;4.492;2023-10-13T12:51:17;100124.09;;;25.93;47.83
79589;BME280;69067;51.930;4.492;2023-10-13T12:53:50;100119.88;;;26.02;47.82
79589;BME280;69067;51.930;4.492;2023-10-13T12:56:18;100101.75;;;25.96;48.34
79589;BME280;69067;51.930;4.492;2023-10-13T12:58:52;100104.84;;;26.00;47.01
79589;BME280;69067;51.930;4.492;2023-10-13T13:01:22;100100.84;;;25.91;48.05
79589;BME280;69067;51.930;4.492;2023-10-13T13:03:58;100093.47;;;25.91;48.12
79589;BME280;69067;51.930;4.492;2023-10-13T13:06:26;100131.63;;;26.03;48.40
79589;BME280;69067;51.930;4.492;2023-10-13T13:08:56;100126.88;;;26.10;48.11
79589;BME280;69067;51.930;4.492;2023-10-13T13:11:23;100115.03;;;26.04;48.10
79589;BME280;69067;51.930;4.492;2023-10-13T13:13:49;100131.41;;;26.04;48.22
79589;BME280;69067;51.930;4.492;2023-10-13T13:16:17;100106.38;;;25.96;48.14
79589;BME280;69067;51.930;4.492;2023-10-13T13:18:45;100114.66;;;26.01;48.73
79589;BME280;69067;51.930;4.492;2023-10-13T13:21:11;100097.72;;;25.99;47.97
79589;BME280;69067;51.930;4.492;2023-10-13T13:23:48;100090.69;;;26.03;48.47
79589;BME280;69067;51.930;4.492;2023-10-13T13:26:14;100081.91;;;26.01;47.94
79589;BME280;69067;51.930;4.492;2023-10-13T13:28:42;100100.56;;;26.04;47.67
79589;BME280;69067;51.930;4.492;2023-10-13T13:31:08;100097.00;;;26.03;47.71
79589;BME280;69067;51.930;4.492;2023-10-13T13:33:34;100115.25;;;26.03;48.31
79589;BME280;69067;51.930;4.492;2023-10-13T13:36:07;100132.22;;;26.05;48.14
79589;BME280;69067;51.930;4.492;2023-10-13T13:38:39;100133.38;;;26.09;48.58
79589;BME280;69067;51.930;4.492;2023-10-13T13:41:14;100145.28;;;26.03;48.50
79589;BME280;69067;51.930;4.492;2023-10-13T13:43:48;100136.47;;;26.12;47.88
79589;BME280;69067;51.930;4.492;2023-10-13T13:46:21;100135.03;;;26.10;48.12
79589;BME280;69067;51.930;4.492;2023-10-13T13:48:54;100141.63;;;25.97;48.83
79589;BME280;69067;51.930;4.492;2023-10-13T13:51:26;100157.72;;;26.10;48.64